Time;durP1;ratioP1;P1;durP2;ratioP2;P2;SDS_P1;SDS_P2;PMS_P1;PMS_P2;Temp;Humidity;BMP_temperature;BMP_pressure;BME280_temperature;BME280_humidity;BME280_pressure;Samples;Min_cycle;Max_cycle;Signal;HPM_P1;HPM_P2
2022/12/14 00:01:07;;;;;;;10.88;5.90;;;;;;;;;;4925356;29;20075;-75
2022/12/14 00:03:34;;;;;;;9.88;5.47;;;;;;;;;;4928288;29;20036;-76
2022/12/14 00:06:12;;;;;;;8.10;5.05;;;;;;;;;;4930362;29;20556;-76
2022/12/14 00:08:40;;;;;;;13.55;7.03;;;;;;;;;;4927860;29;20050;-76
2022/12/14 00:11:06;;;;;;;13.20;7.45;;;;;;;;;;4935938;29;20026;-75
2022/12/14 00:13:32;;;;;;;14.15;7.20;;;;;;;;;;4932757;29;20040;-76
2022/12/14 00:15:58;;;;;;;18.35;7.57;;;;;;;;;;4924966;29;20132;-76
2022/12/14 00:18:24;;;;;;;14.07;9.63;;;;;;;;;;4923863;29;20045;-78
2022/12/14 00:20:49;;;;;;;18.90;9.23;;;;;;;;;;4936264;29;20114;-78
2022/12/14 00:23:15;;;;;;;14.32;8.45;;;;;;;;;;4932769;29;20044;-78
2022/12/14 00:25:41;;;;;;;13.93;8.95;;;;;;;;;;4923651;29;20036;-77
2022/12/14 00:28:07;;;;;;;23.95;9.80;;;;;;;;;;4923419;29;20050;-77
2022/12/14 00:30:33;;;;;;;15.50;8.55;;;;;;;;;;4933484;29;20036;-76
2022/12/14 00:32:59;;;;;;;12.43;7.72;;;;;;;;;;4931982;29;20035;-76
2022/12/14 00:35:24;;;;;;;12.98;7.93;;;;;;;;;;4946231;29;20020;-76
2022/12/14 00:37:50;;;;;;;12.45;7.50;;;;;;;;;;4925819;29;20068;-78
2022/12/14 00:40:16;;;;;;;9.82;6.60;;;;;;;;;;4932711;29;20519;-78
2022/12/14 00:42:42;;;;;;;11.45;7.03;;;;;;;;;;4931803;29;20522;-78
2022/12/14 00:45:08;;;;;;;10.60;6.70;;;;;;;;;;4932901;29;20038;-78
2022/12/14 00:47:34;;;;;;;11.52;5.90;;;;;;;;;;4947637;29;20035;-79
2022/12/14 00:50:00;;;;;;;10.55;6.28;;;;;;;;;;4934410;29;20047;-77
2022/12/14 00:52:26;;;;;;;10.30;6.07;;;;;;;;;;4932703;29;20034;-78
2022/12/14 00:54:52;;;;;;;9.77;6.10;;;;;;;;;;4931634;29;20461;-77
2022/12/14 00:57:18;;;;;;;9.65;5.55;;;;;;;;;;4930860;29;20058;-76
2022/12/14 00:59:44;;;;;;;10.52;5.68;;;;;;;;;;4932334;29;20031;-75
2022/12/14 01:02:09;;;;;;;10.55;6.43;;;;;;;;;;4941378;29;20042;-76
2022/12/14 01:04:35;;;;;;;9.60;5.32;;;;;;;;;;4948224;29;20051;-78
2022/12/14 01:07:01;;;;;;;8.77;5.70;;;;;;;;;;4942386;29;20044;-79
2022/12/14 01:09:27;;;;;;;9.15;5.93;;;;;;;;;;4934335;29;20028;-77
2022/12/14 01:11:53;;;;;;;8.40;5.57;;;;;;;;;;4932237;29;20178;-78
2022/12/14 01:14:20;;;;;;;10.45;6.20;;;;;;;;;;4934715;29;20090;-77
2022/12/14 01:16:46;;;;;;;8.77;5.25;;;;;;;;;;4928565;29;20043;-77
2022/12/14 01:19:13;;;;;;;8.45;4.97;;;;;;;;;;4931124;29;20098;-78
2022/12/14 01:21:39;;;;;;;7.35;4.88;;;;;;;;;;4934948;29;20051;-78
2022/12/14 01:24:05;;;;;;;6.70;4.50;;;;;;;;;;4931790;29;20519;-78
2022/12/14 01:26:36;;;;;;;7.57;4.25;;;;;;;;;;4933704;29;20052;-77
2022/12/14 01:29:03;;;;;;;7.72;3.75;;;;;;;;;;4933571;29;20044;-77
2022/12/14 01:31:31;;;;;;;8.88;4.07;;;;;;;;;;4929873;29;20087;-76
2022/12/14 01:33:57;;;;;;;6.18;4.00;;;;;;;;;;4933151;29;20031;-76
2022/12/14 01:36:26;;;;;;;6.93;4.20;;;;;;;;;;4931739;29;20037;-77
2022/12/14 01:38:57;;;;;;;9.82;4.57;;;;;;;;;;4930520;29;20043;-79
2022/12/14 01:41:37;;;;;;;9.93;4.93;;;;;;;;;;4934986;29;20035;-77
2022/12/14 01:44:23;;;;;;;10.45;4.68;;;;;;;;;;4929598;29;20032;-78
2022/12/14 01:47:28;;;;;;;7.85;4.38;;;;;;;;;;4931508;29;20055;-77
2022/12/14 01:49:56;;;;;;;;;;;;;;;;;;4921503;29;20078;-78
2022/12/14 01:52:34;;;;;;;9.82;6.18;;;;;;;;;;4926884;29;20462;-79
2022/12/14 01:55:05;;;;;;;9.95;6.57;;;;;;;;;;4930392;29;20607;-76
2022/12/14 01:57:43;;;;;;;12.80;8.65;;;;;;;;;;4928822;29;20074;-77
2022/12/14 02:00:12;;;;;;;18.17;8.90;;;;;;;;;;4931462;29;20031;-76
2022/12/14 02:02:43;;;;;;;14.13;9.07;;;;;;;;;;4933045;29;20042;-78
2022/12/14 02:05:11;;;;;;;16.85;9.70;;;;;;;;;;4930564;29;20047;-78
2022/12/14 02:07:39;;;;;;;16.05;9.85;;;;;;;;;;4946160;28;20044;-77
2022/12/14 02:10:05;;;;;;;16.33;9.38;;;;;;;;;;4932395;29;20050;-76
2022/12/14 02:12:48;;;;;;;13.50;8.48;;;;;;;;;;4931937;29;20028;-79
2022/12/14 02:15:16;;;;;;;16.23;8.57;;;;;;;;;;4931175;29;20127;-74
2022/12/14 02:17:45;;;;;;;14.30;8.90;;;;;;;;;;4946825;28;20043;-76
2022/12/14 02:20:13;;;;;;;12.07;8.25;;;;;;;;;;4931161;29;20091;-78
2022/12/14 02:22:45;;;;;;;16.42;9.13;;;;;;;;;;4932158;29;20028;-77
2022/12/14 02:25:32;;;;;;;15.18;9.07;;;;;;;;;;4932384;29;20036;-77
2022/12/14 02:28:16;;;;;;;14.27;8.00;;;;;;;;;;4933443;29;20039;-75
2022/12/14 02:31:03;;;;;;;12.13;8.00;;;;;;;;;;4933387;29;20044;-76
2022/12/14 02:33:50;;;;;;;10.75;6.57;;;;;;;;;;4931654;29;20477;-77
2022/12/14 02:36:40;;;;;;;11.00;6.90;;;;;;;;;;4930199;29;20046;-75
2022/12/14 02:39:19;;;;;;;11.95;6.63;;;;;;;;;;4930428;29;20512;-77
2022/12/14 02:42:10;;;;;;;11.52;7.22;;;;;;;;;;4929037;29;20466;-76
2022/12/14 02:44:56;;;;;;;10.35;6.53;;;;;;;;;;4930341;29;20039;-77
2022/12/14 02:47:53;;;;;;;10.38;6.93;;;;;;;;;;4949775;28;20074;-76
2022/12/14 02:50:19;;;;;;;10.85;6.60;;;;;;;;;;4933675;29;20072;-74
2022/12/14 02:53:02;;;;;;;10.02;6.43;;;;;;;;;;4937799;28;20506;-77
2022/12/14 02:55:45;;;;;;;11.50;7.78;;;;;;;;;;4937631;29;20080;-78
2022/12/14 02:58:29;;;;;;;11.05;6.82;;;;;;;;;;4937070;29;20035;-78
2022/12/14 03:00:55;;;;;;;12.75;6.93;;;;;;;;;;4935733;29;20074;-77
2022/12/14 03:03:21;;;;;;;10.32;6.53;;;;;;;;;;4935973;29;20027;-75
2022/12/14 03:06:02;;;;;;;10.00;6.65;;;;;;;;;;4935904;29;20556;-76
2022/12/14 03:08:34;;;;;;;9.57;6.60;;;;;;;;;;4936203;29;20051;-77
2022/12/14 03:11:04;;;;;;;10.45;6.32;;;;;;;;;;4940549;29;20516;-77
2022/12/14 03:13:33;;;;;;;10.77;6.43;;;;;;;;;;4934811;29;20042;-76
2022/12/14 03:16:05;;;;;;;14.63;7.65;;;;;;;;;;4936534;29;20075;-77
2022/12/14 03:18:40;;;;;;;11.27;7.13;;;;;;;;;;4936298;29;20043;-77
2022/12/14 03:21:10;;;;;;;13.90;7.85;;;;;;;;;;4951327;29;20067;-78
2022/12/14 03:23:39;;;;;;;13.00;6.65;;;;;;;;;;4936721;29;20043;-77
2022/12/14 03:26:08;;;;;;;10.25;6.05;;;;;;;;;;4935835;29;20107;-76
2022/12/14 03:28:44;;;;;;;13.35;7.07;;;;;;;;;;4936780;29;20042;-77
2022/12/14 03:31:19;;;;;;;12.27;6.70;;;;;;;;;;4937367;29;20090;-77
2022/12/14 03:33:48;;;;;;;11.00;7.18;;;;;;;;;;4937838;29;20039;-77
2022/12/14 03:36:36;;;;;;;11.45;6.85;;;;;;;;;;4939153;29;20036;-77
2022/12/14 03:39:05;;;;;;;12.10;7.50;;;;;;;;;;4937623;29;20039;-78
2022/12/14 03:41:42;;;;;;;12.38;6.72;;;;;;;;;;4936567;29;20071;-77
2022/12/14 03:44:22;;;;;;;12.38;6.90;;;;;;;;;;4936542;29;20114;-77
2022/12/14 03:46:56;;;;;;;13.50;7.97;;;;;;;;;;4953184;28;20050;-77
2022/12/14 03:49:47;;;;;;;10.93;7.22;;;;;;;;;;4936719;29;20039;-77
2022/12/14 03:52:27;;;;;;;11.80;7.50;;;;;;;;;;4936893;29;20031;-77
2022/12/14 03:55:13;;;;;;;13.52;7.90;;;;;;;;;;4937917;29;20059;-77
2022/12/14 03:57:58;;;;;;;13.02;7.43;;;;;;;;;;4934491;29;20042;-76
2022/12/14 04:00:28;;;;;;;10.95;7.00;;;;;;;;;;4937852;29;20094;-76
2022/12/14 04:03:08;;;;;;;16.00;8.25;;;;;;;;;;4935323;29;20573;-78
2022/12/14 04:05:41;;;;;;;12.88;7.60;;;;;;;;;;4951295;29;20043;-78
2022/12/14 04:08:18;;;;;;;13.48;7.80;;;;;;;;;;4936254;29;20405;-77
2022/12/14 04:19:50;;;;;;;14.32;7.03;;;;;;;;;;4934308;29;20036;-75
2022/12/14 04:22:24;;;;;;;13.07;7.85;;;;;;;;;;4932879;29;20063;-76
2022/12/14 04:29:54;;;;;;;13.85;8.13;;;;;;;;;;4933859;29;20047;-78
2022/12/14 04:30:58;;;;;;;13.90;8.35;;;;;;;;;;4935974;29;20039;-78
2022/12/14 04:36:13;;;;;;;13.98;8.43;;;;;;;;;;4934017;29;20107;-79
2022/12/14 04:38:41;;;;;;;17.40;8.63;;;;;;;;;;4936023;29;20035;-79
2022/12/14 04:41:11;;;;;;;14.45;8.45;;;;;;;;;;4930627;29;20046;-78
2022/12/14 04:43:41;;;;;;;15.15;9.10;;;;;;;;;;4937678;29;20047;-76
2022/12/14 04:46:11;;;;;;;16.13;9.35;;;;;;;;;;4937518;29;20109;-76
2022/12/14 04:48:47;;;;;;;16.33;9.98;;;;;;;;;;4936819;29;20044;-77
2022/12/14 04:51:34;;;;;;;14.18;9.20;;;;;;;;;;4935882;29;20491;-76
2022/12/14 04:54:14;;;;;;;17.50;9.98;;;;;;;;;;4917478;29;20028;-79
2022/12/14 04:56:46;;;;;;;18.27;10.82;;;;;;;;;;4919548;29;20048;-78
2022/12/14 04:59:12;;;;;;;16.55;9.80;;;;;;;;;;4920028;29;20036;-77
2022/12/14 05:01:52;;;;;;;18.58;9.75;;;;;;;;;;4930830;29;20473;-79
2022/12/14 05:04:36;;;;;;;16.52;10.60;;;;;;;;;;4937971;29;20127;-77
2022/12/14 05:07:05;;;;;;;;;;;;;;;;;;4939256;29;20039;-77
2022/12/14 05:09:37;;;;;;;20.60;10.52;;;;;;;;;;4938976;29;19911;-76
2022/12/14 05:12:26;;;;;;;22.85;10.45;;;;;;;;;;4938394;29;20050;-77
2022/12/14 05:15:02;;;;;;;19.70;10.43;;;;;;;;;;4932118;29;20039;-77
2022/12/14 05:17:28;;;;;;;18.33;10.27;;;;;;;;;;4937878;29;20434;-77
2022/12/14 05:19:56;;;;;;;18.55;10.60;;;;;;;;;;4939187;29;20036;-77
2022/12/14 05:22:22;;;;;;;17.73;10.02;;;;;;;;;;4954051;28;20367;-76
2022/12/14 05:24:48;;;;;;;16.63;9.93;;;;;;;;;;4936329;29;20054;-79
2022/12/14 05:27:13;;;;;;;17.67;10.48;;;;;;;;;;4934801;29;20086;-76
2022/12/14 05:29:39;;;;;;;18.70;9.70;;;;;;;;;;4936230;29;20026;-76
2022/12/14 05:32:05;;;;;;;17.05;9.80;;;;;;;;;;4938120;29;20035;-80
2022/12/14 05:34:31;;;;;;;16.25;10.40;;;;;;;;;;4938563;29;20075;-78
2022/12/14 05:36:57;;;;;;;15.07;9.75;;;;;;;;;;4936740;29;20042;-77
2022/12/14 05:39:23;;;;;;;20.60;10.30;;;;;;;;;;4938996;29;20034;-79
2022/12/14 05:41:49;;;;;;;21.42;10.45;;;;;;;;;;4938780;29;20048;-78
2022/12/14 05:44:16;;;;;;;18.30;10.38;;;;;;;;;;4938016;29;20059;-78
2022/12/14 05:46:41;;;;;;;16.80;10.55;;;;;;;;;;4937561;29;20485;-77
2022/12/14 05:49:07;;;;;;;17.17;10.07;;;;;;;;;;4936246;29;20023;-78
2022/12/14 05:51:33;;;;;;;17.65;10.88;;;;;;;;;;4934345;29;20032;-76
2022/12/14 05:53:59;;;;;;;18.75;10.35;;;;;;;;;;4936057;29;20389;-77
2022/12/14 05:56:26;;;;;;;19.63;11.10;;;;;;;;;;4937283;29;20028;-78
2022/12/14 05:58:51;;;;;;;22.25;11.90;;;;;;;;;;4937395;29;20024;-77
2022/12/14 06:01:18;;;;;;;18.95;10.63;;;;;;;;;;4936883;29;20036;-79
2022/12/14 06:03:44;;;;;;;17.50;9.50;;;;;;;;;;4937077;29;20035;-77
2022/12/14 06:06:11;;;;;;;19.13;11.40;;;;;;;;;;4936949;29;20047;-79
2022/12/14 06:08:41;;;;;;;23.02;11.68;;;;;;;;;;4937563;29;20027;-79
2022/12/14 06:11:13;;;;;;;24.42;11.63;;;;;;;;;;4939792;29;20051;-78
2022/12/14 06:13:41;;;;;;;16.90;10.65;;;;;;;;;;4938138;29;20104;-77
2022/12/14 06:16:14;;;;;;;25.60;10.40;;;;;;;;;;4933833;29;20055;-78
2022/12/14 06:18:44;;;;;;;18.52;10.38;;;;;;;;;;4937594;29;20036;-78
2022/12/14 06:21:12;;;;;;;15.50;10.20;;;;;;;;;;4920958;29;20042;-78
2022/12/14 06:23:38;;;;;;;51.28;12.82;;;;;;;;;;4937495;29;20047;-78
2022/12/14 06:26:06;;;;;;;28.27;11.05;;;;;;;;;;4936012;29;20095;-77
2022/12/14 06:28:32;;;;;;;16.73;9.65;;;;;;;;;;4936700;29;20489;-78
2022/12/14 06:31:01;;;;;;;17.55;10.57;;;;;;;;;;4939999;29;20047;-78
2022/12/14 06:33:27;;;;;;;25.40;10.90;;;;;;;;;;4939474;29;20110;-79
2022/12/14 06:35:54;;;;;;;26.30;13.35;;;;;;;;;;4938299;29;20128;-77
2022/12/14 06:38:19;;;;;;;27.10;12.48;;;;;;;;;;4937945;29;20059;-77
2022/12/14 06:40:48;;;;;;;23.08;11.93;;;;;;;;;;4938149;29;20079;-78
2022/12/14 06:43:14;;;;;;;23.52;12.55;;;;;;;;;;4936017;29;20099;-76
2022/12/14 06:45:40;;;;;;;27.98;11.50;;;;;;;;;;4928661;29;20036;-79
2022/12/14 06:48:06;;;;;;;24.20;12.00;;;;;;;;;;4918529;29;20395;-78
2022/12/14 06:50:32;;;;;;;29.13;13.75;;;;;;;;;;4919956;29;20044;-77
2022/12/14 06:52:58;;;;;;;34.03;14.65;;;;;;;;;;4919258;29;20569;-79
2022/12/14 06:55:24;;;;;;;30.35;13.25;;;;;;;;;;4922201;29;20032;-78
2022/12/14 06:57:51;;;;;;;17.98;10.63;;;;;;;;;;4955850;29;20028;-79
2022/12/14 07:00:20;;;;;;;26.27;10.23;;;;;;;;;;4937116;29;20498;-78
2022/12/14 07:02:46;;;;;;;19.10;9.63;;;;;;;;;;4952285;29;20482;-77
2022/12/14 07:05:13;;;;;;;19.20;11.45;;;;;;;;;;4937613;29;20079;-78
2022/12/14 07:07:39;;;;;;;18.83;10.15;;;;;;;;;;4927877;29;20028;-77
2022/12/14 07:10:07;;;;;;;24.88;10.63;;;;;;;;;;4919791;29;20115;-77
2022/12/14 07:12:33;;;;;;;21.77;10.95;;;;;;;;;;4918042;29;20016;-79
2022/12/14 07:14:59;;;;;;;31.42;10.93;;;;;;;;;;4917724;29;20042;-77
2022/12/14 07:17:24;;;;;;;18.35;10.80;;;;;;;;;;4917178;29;20111;-77
2022/12/14 07:19:52;;;;;;;26.52;11.25;;;;;;;;;;4930235;29;20040;-78
2022/12/14 07:22:18;;;;;;;17.35;10.13;;;;;;;;;;4898710;29;20443;-77
2022/12/14 07:24:44;;;;;;;19.95;10.77;;;;;;;;;;4915206;29;20117;-78
2022/12/14 07:27:10;;;;;;;19.65;10.70;;;;;;;;;;4899640;29;20040;-77
2022/12/14 07:29:36;;;;;;;26.77;11.05;;;;;;;;;;4915278;29;20131;-78
2022/12/14 07:32:02;;;;;;;19.05;10.30;;;;;;;;;;4931411;29;20062;-76
2022/12/14 07:34:30;;;;;;;16.40;10.48;;;;;;;;;;4938246;29;20036;-79
2022/12/14 07:36:56;;;;;;;18.02;9.80;;;;;;;;;;4939825;29;20023;-79
2022/12/14 07:39:26;;;;;;;16.27;8.98;;;;;;;;;;4938304;29;20581;-78
2022/12/14 07:41:53;;;;;;;16.42;10.32;;;;;;;;;;4939003;29;20028;-77
2022/12/14 07:44:20;;;;;;;18.55;9.65;;;;;;;;;;4938034;29;20040;-75
2022/12/14 07:46:46;;;;;;;19.15;10.73;;;;;;;;;;4938451;29;20031;-77
2022/12/14 07:49:12;;;;;;;22.42;13.15;;;;;;;;;;4935836;29;20329;-76
2022/12/14 07:51:43;;;;;;;25.20;13.40;;;;;;;;;;4936685;29;20087;-76
2022/12/14 07:54:10;;;;;;;29.02;13.10;;;;;;;;;;4939343;29;20023;-76
2022/12/14 07:56:38;;;;;;;19.13;10.63;;;;;;;;;;4956087;28;20122;-75
2022/12/14 07:59:07;;;;;;;21.17;10.10;;;;;;;;;;4939014;28;20084;-75
2022/12/14 08:01:35;;;;;;;22.63;11.85;;;;;;;;;;4918710;29;20031;-79
2022/12/14 08:04:14;;;;;;;16.85;10.48;;;;;;;;;;4927766;29;20028;-76
2022/12/14 08:06:40;;;;;;;20.45;9.65;;;;;;;;;;4935619;29;20064;-76
2022/12/14 08:09:09;;;;;;;13.50;8.40;;;;;;;;;;4933755;29;20050;-75
2022/12/14 08:11:35;;;;;;;19.40;10.85;;;;;;;;;;4934943;29;20465;-76
2022/12/14 08:14:15;;;;;;;23.73;10.52;;;;;;;;;;4934792;29;20023;-75
2022/12/14 08:16:43;;;;;;;24.30;11.50;;;;;;;;;;4936558;29;20031;-76
2022/12/14 08:19:10;;;;;;;17.40;9.82;;;;;;;;;;4934207;29;20027;-76
2022/12/14 08:21:36;;;;;;;20.10;10.25;;;;;;;;;;4932907;29;20497;-76
2022/12/14 08:24:02;;;;;;;22.90;12.50;;;;;;;;;;4931214;29;20127;-76
2022/12/14 08:26:28;;;;;;;17.55;11.85;;;;;;;;;;4936467;29;20102;-76
2022/12/14 08:28:55;;;;;;;21.88;12.50;;;;;;;;;;4935607;29;20087;-76
2022/12/14 08:31:34;;;;;;;20.70;12.35;;;;;;;;;;4916875;29;20047;-77
2022/12/14 08:34:01;;;;;;;24.75;12.35;;;;;;;;;;4936630;29;20032;-76
2022/12/14 08:36:29;;;;;;;22.90;13.27;;;;;;;;;;4949539;29;20064;-77
2022/12/14 08:38:57;;;;;;;30.02;13.32;;;;;;;;;;4954839;28;20035;-76
2022/12/14 08:41:24;;;;;;;25.88;12.75;;;;;;;;;;4933572;29;20031;-75
2022/12/14 08:43:56;;;;;;;31.25;14.35;;;;;;;;;;4931737;29;20179;-76
2022/12/14 08:46:25;;;;;;;26.73;14.10;;;;;;;;;;4935409;29;20044;-76
2022/12/14 08:48:52;;;;;;;28.05;15.15;;;;;;;;;;4933550;29;20058;-77
2022/12/14 08:51:21;;;;;;;24.33;14.05;;;;;;;;;;4935987;29;20078;-75
2022/12/14 08:53:49;;;;;;;31.10;15.60;;;;;;;;;;4918882;29;20072;-76
2022/12/14 08:56:19;;;;;;;28.60;14.90;;;;;;;;;;4935510;29;20489;-76
2022/12/14 08:58:45;;;;;;;32.22;19.40;;;;;;;;;;4935374;29;20036;-76
2022/12/14 09:01:40;;;;;;;35.92;16.75;;;;;;;;;;4935919;29;20038;-77
2022/12/14 09:04:07;;;;;;;27.67;16.77;;;;;;;;;;4928770;29;20524;-77
2022/12/14 09:06:36;;;;;;;41.17;17.73;;;;;;;;;;4927927;28;20231;-76
2022/12/14 09:09:03;;;;;;;26.45;15.27;;;;;;;;;;4915319;29;20052;-76
2022/12/14 09:11:28;;;;;;;34.10;16.58;;;;;;;;;;4923210;29;20032;-76
2022/12/14 09:13:55;;;;;;;23.98;13.80;;;;;;;;;;4916766;29;20549;-74
2022/12/14 09:16:22;;;;;;;33.97;15.30;;;;;;;;;;4917849;29;20405;-75
2022/12/14 09:18:51;;;;;;;21.02;14.13;;;;;;;;;;4924989;29;20068;-78
2022/12/14 09:21:17;;;;;;;24.88;14.98;;;;;;;;;;4934550;29;20028;-78
2022/12/14 09:23:49;;;;;;;39.38;16.80;;;;;;;;;;4942659;29;20408;-80
2022/12/14 09:26:17;;;;;;;37.28;15.90;;;;;;;;;;4939569;29;20043;-80
2022/12/14 09:28:49;;;;;;;28.73;15.68;;;;;;;;;;4935261;29;20039;-78
2022/12/14 09:31:21;;;;;;;24.35;13.10;;;;;;;;;;4935727;29;20111;-79
2022/12/14 09:33:47;;;;;;;24.40;13.63;;;;;;;;;;4934762;29;20039;-77
2022/12/14 09:36:19;;;;;;;21.83;12.82;;;;;;;;;;4936394;29;20046;-78
2022/12/14 09:38:45;;;;;;;22.35;11.95;;;;;;;;;;4935992;29;20035;-79
2022/12/14 09:41:23;;;;;;;21.02;11.63;;;;;;;;;;4916768;29;20498;-79
2022/12/14 09:44:28;;;;;;;22.05;11.45;;;;;;;;;;4926599;29;20397;-78
2022/12/14 09:47:00;;;;;;;22.90;10.40;;;;;;;;;;4914771;29;20060;-79
2022/12/14 09:49:31;;;;;;;20.27;10.10;;;;;;;;;;4915735;29;20072;-79
2022/12/14 09:52:03;;;;;;;26.00;10.50;;;;;;;;;;4923052;29;20040;-81
2022/12/14 09:54:36;;;;;;;21.17;12.20;;;;;;;;;;4921736;29;20048;-81
2022/12/14 09:57:17;;;;;;;22.55;12.27;;;;;;;;;;4924132;29;20039;-78
2022/12/14 09:59:43;;;;;;;29.52;11.35;;;;;;;;;;4934071;29;20035;-78
2022/12/14 10:02:37;;;;;;;20.40;12.32;;;;;;;;;;4932553;29;20130;-76
2022/12/14 10:05:42;;;;;;;22.17;10.98;;;;;;;;;;4933467;29;20047;-77
2022/12/14 10:08:26;;;;;;;27.13;12.90;;;;;;;;;;4934497;29;20067;-77
2022/12/14 10:11:10;;;;;;;16.80;10.48;;;;;;;;;;4922544;29;20028;-77
2022/12/14 10:14:04;;;;;;;27.23;14.10;;;;;;;;;;4948662;28;20517;-76
2022/12/14 10:16:47;;;;;;;24.40;12.20;;;;;;;;;;4928685;29;20425;-77
2022/12/14 10:19:34;;;;;;;17.05;11.80;;;;;;;;;;4928178;29;20522;-78
2022/12/14 10:22:14;;;;;;;22.48;12.07;;;;;;;;;;4915351;29;20098;-78
2022/12/14 10:24:55;;;;;;;32.85;12.80;;;;;;;;;;4933428;29;20466;-76
2022/12/14 10:27:26;;;;;;;21.63;12.48;;;;;;;;;;4933332;29;20529;-77
2022/12/14 10:30:27;;;;;;;24.77;14.05;;;;;;;;;;4935522;29;20051;-78
2022/12/14 10:33:15;;;;;;;24.77;11.80;;;;;;;;;;4927500;29;20043;-77
2022/12/14 10:35:55;;;;;;;17.00;9.80;;;;;;;;;;4933504;29;20055;-77
2022/12/14 10:38:38;;;;;;;16.92;9.48;;;;;;;;;;4934224;29;20031;-78
2022/12/14 10:41:17;;;;;;;14.95;9.65;;;;;;;;;;4933541;28;20520;-78
2022/12/14 10:43:50;;;;;;;21.85;11.07;;;;;;;;;;4933394;29;20050;-78
2022/12/14 10:46:23;;;;;;;19.83;10.80;;;;;;;;;;4934278;29;20051;-78
2022/12/14 10:48:58;;;;;;;16.90;10.88;;;;;;;;;;4947298;29;20514;-77
2022/12/14 10:51:42;;;;;;;20.80;10.88;;;;;;;;;;4934415;28;20074;-78
2022/12/14 10:54:37;;;;;;;21.70;13.00;;;;;;;;;;4934479;29;20032;-77
2022/12/14 10:57:04;;;;;;;21.90;13.77;;;;;;;;;;4934505;29;20038;-77
2022/12/14 10:59:36;;;;;;;24.40;14.65;;;;;;;;;;4933242;29;20027;-77
2022/12/14 11:02:11;;;;;;;25.65;15.32;;;;;;;;;;4935197;29;20047;-77
2022/12/14 11:04:49;;;;;;;24.30;13.80;;;;;;;;;;4934189;29;20043;-78
2022/12/14 11:07:19;;;;;;;29.85;14.52;;;;;;;;;;4934024;29;20081;-79
2022/12/14 11:09:45;;;;;;;29.50;13.45;;;;;;;;;;4938187;28;20470;-76
2022/12/14 11:12:25;;;;;;;17.50;11.00;;;;;;;;;;4920405;29;20047;-76
2022/12/14 11:14:54;;;;;;;15.25;9.98;;;;;;;;;;4937712;29;20095;-77
2022/12/14 11:17:43;;;;;;;17.17;10.07;;;;;;;;;;4937636;29;20082;-77
2022/12/14 11:20:20;;;;;;;13.80;9.48;;;;;;;;;;4936519;29;20438;-77
2022/12/14 11:22:54;;;;;;;13.23;7.82;;;;;;;;;;4952137;29;20465;-76
2022/12/14 11:25:42;;;;;;;13.65;8.23;;;;;;;;;;4937202;29;20051;-77
2022/12/14 11:28:20;;;;;;;12.43;7.78;;;;;;;;;;4936932;29;20035;-77
2022/12/14 11:30:56;;;;;;;17.50;8.43;;;;;;;;;;4938551;29;20054;-79
2022/12/14 11:33:24;;;;;;;23.05;8.02;;;;;;;;;;4938717;29;20024;-78
2022/12/14 11:35:51;;;;;;;19.35;7.95;;;;;;;;;;4937890;29;20394;-77
2022/12/14 11:38:18;;;;;;;11.43;6.68;;;;;;;;;;4935370;29;20051;-77
2022/12/14 11:40:45;;;;;;;8.27;6.00;;;;;;;;;;4918573;29;20513;-80
2022/12/14 11:43:37;;;;;;;10.60;6.40;;;;;;;;;;4921374;29;20035;-78
2022/12/14 11:46:04;;;;;;;11.75;6.07;;;;;;;;;;4920383;29;20083;-75
2022/12/14 11:48:30;;;;;;;15.48;7.53;;;;;;;;;;4920902;29;20116;-79
2022/12/14 11:51:13;;;;;;;12.80;7.20;;;;;;;;;;4920558;29;20411;-77
2022/12/14 11:53:40;;;;;;;11.20;7.20;;;;;;;;;;4933849;29;20047;-76
2022/12/14 11:56:17;;;;;;;11.57;6.72;;;;;;;;;;4918797;29;20038;-77
2022/12/14 11:58:51;;;;;;;16.83;8.80;;;;;;;;;;4917230;29;20123;-77
2022/12/14 12:01:23;;;;;;;11.20;6.97;;;;;;;;;;4918554;29;20083;-76
2022/12/14 12:03:58;;;;;;;19.73;9.80;;;;;;;;;;4933930;29;20055;-77
2022/12/14 12:06:26;;;;;;;20.95;8.82;;;;;;;;;;4940027;28;20048;-74
2022/12/14 12:08:58;;;;;;;16.45;8.43;;;;;;;;;;4936762;29;20034;-75
2022/12/14 12:11:29;;;;;;;11.10;6.57;;;;;;;;;;4936750;29;20110;-76
2022/12/14 12:14:02;;;;;;;17.27;7.78;;;;;;;;;;4934543;29;20043;-76
2022/12/14 12:16:31;;;;;;;13.02;7.25;;;;;;;;;;4930048;29;20401;-76
2022/12/14 12:19:16;;;;;;;15.75;6.63;;;;;;;;;;4928182;29;20067;-75
2022/12/14 12:21:43;;;;;;;12.05;6.88;;;;;;;;;;4933921;29;20031;-76
2022/12/14 12:24:35;;;;;;;20.48;8.05;;;;;;;;;;4932931;29;20466;-77
2022/12/14 12:27:12;;;;;;;15.60;7.20;;;;;;;;;;4919314;29;20032;-77
2022/12/14 12:29:55;;;;;;;17.83;7.85;;;;;;;;;;4932206;29;20043;-75
2022/12/14 12:32:50;;;;;;;10.70;6.05;;;;;;;;;;4918001;29;20491;-75
2022/12/14 12:35:52;;;;;;;13.63;5.63;;;;;;;;;;4937666;28;20174;-76
2022/12/14 12:38:40;;;;;;;14.05;6.50;;;;;;;;;;4944490;29;20047;-75
2022/12/14 12:41:24;;;;;;;12.05;5.90;;;;;;;;;;4932768;29;20040;-78
2022/12/14 12:44:31;;;;;;;17.30;5.95;;;;;;;;;;4951293;29;20091;-76
2022/12/14 12:47:25;;;;;;;9.88;5.28;;;;;;;;;;4924721;29;20040;-78
2022/12/14 12:49:51;;;;;;;10.40;6.03;;;;;;;;;;4916334;29;20047;-76
2022/12/14 12:52:32;;;;;;;9.55;4.70;;;;;;;;;;4928596;29;20035;-75
2022/12/14 12:55:14;;;;;;;9.27;5.57;;;;;;;;;;4914860;29;20383;-76
2022/12/14 12:57:44;;;;;;;11.73;5.50;;;;;;;;;;4922271;29;20505;-76
2022/12/14 13:00:19;;;;;;;12.25;5.18;;;;;;;;;;4935669;29;20035;-75
2022/12/14 13:03:12;;;;;;;10.77;6.05;;;;;;;;;;4935503;29;20137;-77
2022/12/14 13:05:44;;;;;;;14.23;6.90;;;;;;;;;;4934645;29;20039;-79
2022/12/14 13:08:24;;;;;;;14.38;6.63;;;;;;;;;;4934162;29;20062;-77
2022/12/14 13:10:53;;;;;;;10.00;6.00;;;;;;;;;;4929006;29;20087;-78
2022/12/14 13:13:26;;;;;;;19.98;6.57;;;;;;;;;;4929783;29;20015;-76
2022/12/14 13:15:56;;;;;;;17.75;7.32;;;;;;;;;;4922840;29;20040;-77
2022/12/14 13:18:29;;;;;;;15.98;7.18;;;;;;;;;;4915663;29;20040;-77
2022/12/14 13:21:00;;;;;;;13.15;6.70;;;;;;;;;;4916520;29;20036;-77
2022/12/14 13:23:28;;;;;;;9.80;6.88;;;;;;;;;;4919104;29;20063;-76
2022/12/14 13:26:31;;;;;;;14.23;8.45;;;;;;;;;;4934237;29;20032;-76
2022/12/14 13:29:13;;;;;;;12.88;8.40;;;;;;;;;;4935339;29;20110;-77
2022/12/14 13:31:50;;;;;;;11.60;6.82;;;;;;;;;;4917355;29;20542;-78
2022/12/14 13:34:33;;;;;;;11.27;5.75;;;;;;;;;;4916706;29;20451;-78
2022/12/14 13:37:20;;;;;;;8.70;5.60;;;;;;;;;;4926127;29;20410;-78
2022/12/14 13:40:43;;;;;;;12.95;6.28;;;;;;;;;;4934315;29;20055;-77
2022/12/14 13:43:17;;;;;;;15.98;6.25;;;;;;;;;;4898426;29;20036;-75
2022/12/14 13:45:46;;;;;;;14.93;6.05;;;;;;;;;;4914535;29;20036;-77
2022/12/14 13:48:24;;;;;;;11.60;6.10;;;;;;;;;;4925821;29;20505;-76
2022/12/14 13:51:00;;;;;;;10.90;6.15;;;;;;;;;;4946347;29;20043;-77
2022/12/14 13:53:47;;;;;;;14.32;6.97;;;;;;;;;;4955022;28;20046;-77
2022/12/14 13:56:29;;;;;;;11.30;6.95;;;;;;;;;;4935914;28;20036;-77
2022/12/14 13:58:57;;;;;;;10.25;6.95;;;;;;;;;;4932265;29;20098;-76
2022/12/14 14:01:53;;;;;;;24.40;6.78;;;;;;;;;;4931558;29;20039;-79
2022/12/14 14:04:27;;;;;;;10.88;5.90;;;;;;;;;;4930099;29;20043;-76
2022/12/14 14:06:55;;;;;;;12.27;6.23;;;;;;;;;;4913234;29;20134;-76
2022/12/14 14:09:33;;;;;;;9.90;5.78;;;;;;;;;;4930903;29;20111;-79
2022/12/14 14:12:17;;;;;;;7.18;5.35;;;;;;;;;;4918979;29;20046;-76
2022/12/14 14:14:49;;;;;;;8.68;6.55;;;;;;;;;;4930708;29;20123;-78
2022/12/14 14:17:25;;;;;;;11.32;6.38;;;;;;;;;;4914650;29;20099;-78
2022/12/14 14:19:54;;;;;;;9.30;5.90;;;;;;;;;;4915059;29;20494;-76
2022/12/14 14:22:22;;;;;;;13.27;6.53;;;;;;;;;;4916100;29;20056;-76
2022/12/14 14:25:04;;;;;;;12.40;6.22;;;;;;;;;;4915877;29;20048;-75
2022/12/14 14:27:46;;;;;;;10.27;5.63;;;;;;;;;;4915263;29;20526;-78
2022/12/14 14:30:36;;;;;;;12.98;6.00;;;;;;;;;;4918592;29;20039;-74
2022/12/14 14:33:22;;;;;;;14.93;7.38;;;;;;;;;;4928974;29;20035;-75
2022/12/14 14:35:48;;;;;;;12.02;6.85;;;;;;;;;;4934381;29;20098;-76
2022/12/14 14:38:30;;;;;;;14.60;6.90;;;;;;;;;;4932212;29;20047;-79
2022/12/14 14:41:08;;;;;;;11.70;6.00;;;;;;;;;;4917438;29;20040;-76
2022/12/14 14:43:41;;;;;;;16.25;7.05;;;;;;;;;;4938140;29;20510;-76
2022/12/14 14:46:09;;;;;;;12.07;7.45;;;;;;;;;;4938199;29;20046;-78
2022/12/14 14:48:40;;;;;;;12.07;6.35;;;;;;;;;;4925923;29;20032;-77
2022/12/14 14:51:13;;;;;;;12.55;6.57;;;;;;;;;;4922444;29;20072;-77
2022/12/14 14:53:40;;;;;;;12.07;7.60;;;;;;;;;;4945350;29;20040;-73
2022/12/14 14:56:37;;;;;;;15.30;7.18;;;;;;;;;;4937588;29;20050;-76
2022/12/14 14:59:18;;;;;;;11.00;7.20;;;;;;;;;;4938631;29;20476;-76
2022/12/14 15:01:57;;;;;;;11.68;7.47;;;;;;;;;;4933698;29;20023;-76
2022/12/14 15:04:49;;;;;;;12.00;7.00;;;;;;;;;;4936128;29;20110;-75
2022/12/14 15:07:23;;;;;;;15.20;8.07;;;;;;;;;;4937624;29;20434;-77
2022/12/14 15:10:05;;;;;;;13.20;7.45;;;;;;;;;;4937690;29;20027;-78
2022/12/14 15:12:31;;;;;;;13.40;7.20;;;;;;;;;;4938132;29;20035;-75
2022/12/14 15:15:03;;;;;;;13.27;6.95;;;;;;;;;;4937581;29;20486;-78
2022/12/14 15:17:29;;;;;;;12.73;6.88;;;;;;;;;;4938410;29;20035;-76